sensor_id;sensor_type;location;lat;lon;timestamp;pressure;altitude;pressure_sealevel;temperature;humidity
78613;BME280;67933;51.060;3.638;2024-02-15T00:00:01;101674.00;;;11.64;100.00
78613;BME280;67933;51.060;3.638;2024-02-15T00:02:28;101674.00;;;11.64;100.00
78613;BME280;67933;51.060;3.638;2024-02-15T00:04:53;101678.38;;;11.65;100.00
78613;BME280;67933;51.060;3.638;2024-02-15T00:07:19;101682.22;;;11.59;100.00
78613;BME280;67933;51.060;3.638;2024-02-15T00:09:47;101676.66;;;11.64;100.00
78613;BME280;67933;51.060;3.638;2024-02-15T00:12:13;101672.13;;;11.66;100.00
78613;BME280;67933;51.060;3.638;2024-02-15T00:14:38;101680.03;;;11.67;100.00
78613;BME280;67933;51.060;3.638;2024-02-15T00:17:04;101674.56;;;11.70;100.00
78613;BME280;67933;51.060;3.638;2024-02-15T00:19:30;101682.53;;;11.70;100.00
78613;BME280;67933;51.060;3.638;2024-02-15T00:21:55;101672.59;;;11.75;100.00
78613;BME280;67933;51.060;3.638;2024-02-15T00:24:21;101675.25;;;11.75;100.00
78613;BME280;67933;51.060;3.638;2024-02-15T00:26:47;101667.03;;;11.80;100.00
78613;BME280;67933;51.060;3.638;2024-02-15T00:29:13;101660.72;;;11.82;100.00
78613;BME280;67933;51.060;3.638;2024-02-15T00:31:39;101668.75;;;11.81;100.00
78613;BME280;67933;51.060;3.638;2024-02-15T00:34:05;101655.31;;;11.84;100.00
78613;BME280;67933;51.060;3.638;2024-02-15T00:36:31;101651.56;;;11.88;100.00
78613;BME280;67933;51.060;3.638;2024-02-15T00:38:57;101657.44;;;11.94;100.00
78613;BME280;67933;51.060;3.638;2024-02-15T00:41:23;101645.06;;;11.93;100.00
78613;BME280;67933;51.060;3.638;2024-02-15T00:43:48;101652.66;;;12.01;100.00
78613;BME280;67933;51.060;3.638;2024-02-15T00:46:15;101653.50;;;12.02;100.00
78613;BME280;67933;51.060;3.638;2024-02-15T00:48:41;101646.31;;;12.04;100.00
78613;BME280;67933;51.060;3.638;2024-02-15T00:51:06;101641.88;;;12.04;100.00
78613;BME280;67933;51.060;3.638;2024-02-15T00:53:33;101648.19;;;12.02;100.00
78613;BME280;67933;51.060;3.638;2024-02-15T00:55:58;101640.59;;;11.94;100.00
78613;BME280;67933;51.060;3.638;2024-02-15T00:58:24;101644.91;;;11.97;100.00
78613;BME280;67933;51.060;3.638;2024-02-15T01:00:52;101647.50;;;11.98;100.00
78613;BME280;67933;51.060;3.638;2024-02-15T01:03:17;101650.25;;;11.97;100.00
78613;BME280;67933;51.060;3.638;2024-02-15T01:05:43;101651.09;;;11.97;100.00
78613;BME280;67933;51.060;3.638;2024-02-15T01:08:08;101651.78;;;12.01;100.00
78613;BME280;67933;51.060;3.638;2024-02-15T01:10:34;101637.72;;;11.99;100.00
78613;BME280;67933;51.060;3.638;2024-02-15T01:13:00;101629.44;;;12.05;100.00
78613;BME280;67933;51.060;3.638;2024-02-15T01:15:25;101633.03;;;12.04;100.00
78613;BME280;67933;51.060;3.638;2024-02-15T01:17:51;101637.41;;;12.05;100.00
78613;BME280;67933;51.060;3.638;2024-02-15T01:20:16;101631.09;;;12.07;100.00
78613;BME280;67933;51.060;3.638;2024-02-15T01:22:42;101640.75;;;12.08;100.00
78613;BME280;67933;51.060;3.638;2024-02-15T01:25:09;101633.97;;;12.03;100.00
78613;BME280;67933;51.060;3.638;2024-02-15T01:27:35;101638.28;;;12.05;100.00
78613;BME280;67933;51.060;3.638;2024-02-15T01:30:01;101628.50;;;12.06;100.00
78613;BME280;67933;51.060;3.638;2024-02-15T01:32:26;101622.66;;;11.99;100.00
78613;BME280;67933;51.060;3.638;2024-02-15T01:34:52;101626.91;;;12.02;100.00
78613;BME280;67933;51.060;3.638;2024-02-15T01:37:20;101622.94;;;11.93;100.00
78613;BME280;67933;51.060;3.638;2024-02-15T01:39:46;101613.06;;;11.78;100.00
78613;BME280;67933;51.060;3.638;2024-02-15T01:42:12;101620.53;;;11.70;100.00
78613;BME280;67933;51.060;3.638;2024-02-15T01:44:39;101618.25;;;11.62;100.00
78613;BME280;67933;51.060;3.638;2024-02-15T01:47:05;101613.97;;;11.60;100.00
78613;BME280;67933;51.060;3.638;2024-02-15T01:49:31;101619.28;;;11.60;100.00
78613;BME280;67933;51.060;3.638;2024-02-15T01:51:57;101609.66;;;11.57;100.00
78613;BME280;67933;51.060;3.638;2024-02-15T01:54:24;101624.06;;;11.53;100.00
78613;BME280;67933;51.060;3.638;2024-02-15T01:56:50;101609.03;;;11.52;100.00
78613;BME280;67933;51.060;3.638;2024-02-15T01:59:16;101616.16;;;11.51;100.00
78613;BME280;67933;51.060;3.638;2024-02-15T02:01:42;101618.09;;;11.48;100.00
78613;BME280;67933;51.060;3.638;2024-02-15T02:04:09;101613.69;;;11.47;100.00
78613;BME280;67933;51.060;3.638;2024-02-15T02:06:37;101625.13;;;11.49;100.00
78613;BME280;67933;51.060;3.638;2024-02-15T02:09:03;101611.16;;;11.45;100.00
78613;BME280;67933;51.060;3.638;2024-02-15T02:11:28;101611.16;;;11.45;100.00
78613;BME280;67933;51.060;3.638;2024-02-15T02:13:55;101613.69;;;11.47;100.00
78613;BME280;67933;51.060;3.638;2024-02-15T02:16:27;101617.28;;;11.46;100.00
78613;BME280;67933;51.060;3.638;2024-02-15T02:18:55;101616.34;;;11.47;100.00
78613;BME280;67933;51.060;3.638;2024-02-15T02:21:21;101605.59;;;11.50;100.00
78613;BME280;67933;51.060;3.638;2024-02-15T02:23:53;101594.16;;;11.48;100.00
78613;BME280;67933;51.060;3.638;2024-02-15T02:26:20;101591.59;;;11.46;100.00
78613;BME280;67933;51.060;3.638;2024-02-15T02:28:46;101588.53;;;11.54;100.00
78613;BME280;67933;51.060;3.638;2024-02-15T02:31:12;101588.25;;;11.60;100.00
78613;BME280;67933;51.060;3.638;2024-02-15T02:33:37;101591.84;;;11.59;100.00
78613;BME280;67933;51.060;3.638;2024-02-15T02:36:03;101591.00;;;11.58;100.00
78613;BME280;67933;51.060;3.638;2024-02-15T02:38:34;101592.94;;;11.55;100.00
78613;BME280;67933;51.060;3.638;2024-02-15T02:41:02;101589.50;;;11.53;100.00
78613;BME280;67933;51.060;3.638;2024-02-15T02:43:28;101584.19;;;11.53;100.00
78613;BME280;67933;51.060;3.638;2024-02-15T02:45:53;101583.16;;;11.55;100.00
78613;BME280;67933;51.060;3.638;2024-02-15T02:48:18;101585.13;;;11.52;100.00
78613;BME280;67933;51.060;3.638;2024-02-15T02:50:44;101576.22;;;11.53;100.00
78613;BME280;67933;51.060;3.638;2024-02-15T02:53:09;101572.78;;;11.51;100.00
78613;BME280;67933;51.060;3.638;2024-02-15T02:55:36;101569.19;;;11.52;100.00
78613;BME280;67933;51.060;3.638;2024-02-15T02:58:01;101566.66;;;11.49;100.00
78613;BME280;67933;51.060;3.638;2024-02-15T03:00:27;101559.63;;;11.48;100.00
78613;BME280;67933;51.060;3.638;2024-02-15T03:02:53;101563.06;;;11.50;100.00
78613;BME280;67933;51.060;3.638;2024-02-15T03:05:22;101558.84;;;11.46;100.00
78613;BME280;67933;51.060;3.638;2024-02-15T03:07:47;101558.84;;;11.46;100.00
78613;BME280;67933;51.060;3.638;2024-02-15T03:10:13;101557.34;;;11.40;100.00
78613;BME280;67933;51.060;3.638;2024-02-15T03:12:40;101554.56;;;11.43;100.00
78613;BME280;67933;51.060;3.638;2024-02-15T03:15:08;101546.66;;;11.42;100.00
78613;BME280;67933;51.060;3.638;2024-02-15T03:17:37;101548.53;;;11.40;100.00
78613;BME280;67933;51.060;3.638;2024-02-15T03:20:05;101538.94;;;11.37;100.00
78613;BME280;67933;51.060;3.638;2024-02-15T03:22:36;101542.34;;;11.39;100.00
78613;BME280;67933;51.060;3.638;2024-02-15T03:25:04;101533.44;;;11.40;100.00
78613;BME280;67933;51.060;3.638;2024-02-15T03:27:33;101537.91;;;11.40;100.00
78613;BME280;67933;51.060;3.638;2024-02-15T03:30:01;101539.63;;;11.41;100.00
78613;BME280;67933;51.060;3.638;2024-02-15T03:32:26;101537.91;;;11.40;100.00
78613;BME280;67933;51.060;3.638;2024-02-15T03:34:52;101535.25;;;11.40;100.00
78613;BME280;67933;51.060;3.638;2024-02-15T03:37:19;101536.16;;;11.39;100.00
78613;BME280;67933;51.060;3.638;2024-02-15T03:39:45;101526.50;;;11.38;100.00
78613;BME280;67933;51.060;3.638;2024-02-15T03:42:11;101530.00;;;11.38;100.00
78613;BME280;67933;51.060;3.638;2024-02-15T03:44:36;101521.94;;;11.40;100.00
78613;BME280;67933;51.060;3.638;2024-02-15T03:47:04;101530.00;;;11.38;100.00
78613;BME280;67933;51.060;3.638;2024-02-15T03:49:30;101527.25;;;11.40;100.00
78613;BME280;67933;51.060;3.638;2024-02-15T03:51:57;101531.81;;;11.38;100.00
78613;BME280;67933;51.060;3.638;2024-02-15T03:54:23;101533.69;;;11.36;100.00
78613;BME280;67933;51.060;3.638;2024-02-15T03:56:49;101532.81;;;11.35;100.00
78613;BME280;67933;51.060;3.638;2024-02-15T03:59:21;101539.06;;;11.34;100.00
78613;BME280;67933;51.060;3.638;2024-02-15T04:01:54;101539.00;;;11.36;100.00
78613;BME280;67933;51.060;3.638;2024-02-15T04:04:20;101532.75;;;11.37;100.00
78613;BME280;67933;51.060;3.638;2024-02-15T04:06:52;101532.75;;;11.37;100.00
78613;BME280;67933;51.060;3.638;2024-02-15T04:09:18;101528.38;;;11.36;100.00
78613;BME280;67933;51.060;3.638;2024-02-15T04:11:45;101519.63;;;11.34;100.00
78613;BME280;67933;51.060;3.638;2024-02-15T04:14:18;101520.41;;;11.36;100.00
78613;BME280;67933;51.060;3.638;2024-02-15T04:16:44;101523.91;;;11.36;100.00
78613;BME280;67933;51.060;3.638;2024-02-15T04:19:10;101524.69;;;11.38;100.00
78613;BME280;67933;51.060;3.638;2024-02-15T04:21:36;101530.09;;;11.37;100.00
78613;BME280;67933;51.060;3.638;2024-02-15T04:24:01;101518.53;;;11.38;100.00
78613;BME280;67933;51.060;3.638;2024-02-15T04:26:27;101518.75;;;11.33;100.00
78613;BME280;67933;51.060;3.638;2024-02-15T04:28:55;101520.47;;;11.34;100.00
78613;BME280;67933;51.060;3.638;2024-02-15T04:31:20;101526.50;;;11.38;100.00
78613;BME280;67933;51.060;3.638;2024-02-15T04:33:54;101525.72;;;11.36;100.00
78613;BME280;67933;51.060;3.638;2024-02-15T04:36:21;101525.72;;;11.36;100.00
78613;BME280;67933;51.060;3.638;2024-02-15T04:38:51;101521.94;;;11.40;100.00
78613;BME280;67933;51.060;3.638;2024-02-15T04:41:20;101523.84;;;11.38;100.00
78613;BME280;67933;51.060;3.638;2024-02-15T04:43:48;101522.81;;;11.40;100.00
78613;BME280;67933;51.060;3.638;2024-02-15T04:46:14;101510.47;;;11.39;100.00
78613;BME280;67933;51.060;3.638;2024-02-15T04:48:40;101518.53;;;11.38;100.00
78613;BME280;67933;51.060;3.638;2024-02-15T04:51:09;101513.06;;;11.41;100.00
78613;BME280;67933;51.060;3.638;2024-02-15T04:53:36;101502.44;;;11.41;100.00
78613;BME280;67933;51.060;3.638;2024-02-15T04:56:04;101500.88;;;11.37;100.00
78613;BME280;67933;51.060;3.638;2024-02-15T04:58:35;101490.06;;;11.40;100.00
78613;BME280;67933;51.060;3.638;2024-02-15T05:01:02;101490.78;;;11.43;100.00
78613;BME280;67933;51.060;3.638;2024-02-15T05:03:32;101485.41;;;11.45;100.00
78613;BME280;67933;51.060;3.638;2024-02-15T05:06:00;101486.16;;;11.47;100.00
78613;BME280;67933;51.060;3.638;2024-02-15T05:08:26;101486.16;;;11.47;100.00
78613;BME280;67933;51.060;3.638;2024-02-15T05:10:51;101490.47;;;11.49;100.00
78613;BME280;67933;51.060;3.638;2024-02-15T05:13:23;101493.38;;;11.45;100.00
78613;BME280;67933;51.060;3.638;2024-02-15T05:15:49;101480.97;;;11.45;100.00
78613;BME280;67933;51.060;3.638;2024-02-15T05:18:15;101484.44;;;11.46;100.00
78613;BME280;67933;51.060;3.638;2024-02-15T05:20:42;101485.00;;;11.52;100.00
78613;BME280;67933;51.060;3.638;2024-02-15T05:23:07;101492.13;;;11.52;100.00
78613;BME280;67933;51.060;3.638;2024-02-15T05:25:33;101482.09;;;11.57;100.00
78613;BME280;67933;51.060;3.638;2024-02-15T05:27:59;101480.38;;;11.56;100.00
78613;BME280;67933;51.060;3.638;2024-02-15T05:30:25;101484.16;;;11.52;100.00
78613;BME280;67933;51.060;3.638;2024-02-15T05:32:51;101499.91;;;11.55;100.00
78613;BME280;67933;51.060;3.638;2024-02-15T05:35:18;101493.53;;;11.59;100.00
78613;BME280;67933;51.060;3.638;2024-02-15T05:37:43;101485.09;;;11.51;100.00
78613;BME280;67933;51.060;3.638;2024-02-15T05:40:09;101480.38;;;11.56;100.00
78613;BME280;67933;51.060;3.638;2024-02-15T05:42:43;101469.63;;;11.59;100.00
78613;BME280;67933;51.060;3.638;2024-02-15T05:45:30;101470.22;;;11.64;100.00
78613;BME280;67933;51.060;3.638;2024-02-15T05:47:57;101472.88;;;11.64;100.00
78613;BME280;67933;51.060;3.638;2024-02-15T05:50:24;101472.88;;;11.64;100.00
78613;BME280;67933;51.060;3.638;2024-02-15T05:52:49;101459.50;;;11.66;100.00
78613;BME280;67933;51.060;3.638;2024-02-15T05:55:16;101462.09;;;11.67;100.00
78613;BME280;67933;51.060;3.638;2024-02-15T05:57:45;101452.22;;;11.69;100.00
78613;BME280;67933;51.060;3.638;2024-02-15T06:00:11;101448.88;;;11.66;100.00
78613;BME280;67933;51.060;3.638;2024-02-15T06:02:37;101455.06;;;11.66;100.00
78613;BME280;67933;51.060;3.638;2024-02-15T06:05:03;101458.97;;;11.59;100.00
78613;BME280;67933;51.060;3.638;2024-02-15T06:07:30;101454.34;;;11.63;100.00
78613;BME280;67933;51.060;3.638;2024-02-15T06:09:57;101450.84;;;11.62;100.00
78613;BME280;67933;51.060;3.638;2024-02-15T06:12:23;101457.09;;;11.61;100.00
78613;BME280;67933;51.060;3.638;2024-02-15T06:14:48;101459.06;;;11.57;100.00
78613;BME280;67933;51.060;3.638;2024-02-15T06:17:14;101462.91;;;11.52;100.00
78613;BME280;67933;51.060;3.638;2024-02-15T06:19:39;101475.53;;;11.64;100.00
78613;BME280;67933;51.060;3.638;2024-02-15T06:22:05;101463.03;;;11.66;100.00
78613;BME280;67933;51.060;3.638;2024-02-15T06:24:30;101472.81;;;11.66;100.00
78613;BME280;67933;51.060;3.638;2024-02-15T06:26:56;101465.84;;;11.63;100.00
78613;BME280;67933;51.060;3.638;2024-02-15T06:29:25;101456.78;;;11.67;100.00
78613;BME280;67933;51.060;3.638;2024-02-15T06:32:09;101463.56;;;11.73;100.00
78613;BME280;67933;51.060;3.638;2024-02-15T06:34:53;101456.94;;;11.81;100.00
78613;BME280;67933;51.060;3.638;2024-02-15T06:37:38;101463.34;;;11.77;100.00
78613;BME280;67933;51.060;3.638;2024-02-15T06:40:22;101474.59;;;11.65;100.00
78613;BME280;67933;51.060;3.638;2024-02-15T06:42:48;101471.47;;;11.57;100.00
78613;BME280;67933;51.060;3.638;2024-02-15T06:45:13;101472.41;;;11.56;100.00
78613;BME280;67933;51.060;3.638;2024-02-15T06:47:43;101464.63;;;11.53;100.00
78613;BME280;67933;51.060;3.638;2024-02-15T06:50:12;101473.66;;;11.49;100.00
78613;BME280;67933;51.060;3.638;2024-02-15T06:52:39;101470.88;;;11.52;100.00
78613;BME280;67933;51.060;3.638;2024-02-15T06:55:06;101468.34;;;11.49;100.00
78613;BME280;67933;51.060;3.638;2024-02-15T06:57:35;101483.75;;;11.42;100.00
78613;BME280;67933;51.060;3.638;2024-02-15T07:00:04;101475.53;;;11.47;100.00
78613;BME280;67933;51.060;3.638;2024-02-15T07:02:33;101480.72;;;11.50;100.00
78613;BME280;67933;51.060;3.638;2024-02-15T07:04:58;101479.38;;;11.58;100.00
78613;BME280;67933;51.060;3.638;2024-02-15T07:07:24;101487.56;;;11.54;100.00
78613;BME280;67933;51.060;3.638;2024-02-15T07:09:50;101490.88;;;11.59;100.00
78613;BME280;67933;51.060;3.638;2024-02-15T07:12:16;101490.63;;;11.64;100.00
78613;BME280;67933;51.060;3.638;2024-02-15T07:14:41;101493.75;;;11.54;100.00
78613;BME280;67933;51.060;3.638;2024-02-15T07:17:07;101489.47;;;11.52;100.00
78613;BME280;67933;51.060;3.638;2024-02-15T07:19:32;101495.31;;;11.41;100.00
78613;BME280;67933;51.060;3.638;2024-02-15T07:22:02;101488.34;;;11.39;100.00
78613;BME280;67933;51.060;3.638;2024-02-15T07:24:27;101495.84;;;11.31;100.00
78613;BME280;67933;51.060;3.638;2024-02-15T07:26:53;101494.44;;;11.24;100.00
78613;BME280;67933;51.060;3.638;2024-02-15T07:29:21;101486.63;;;11.21;100.00
78613;BME280;67933;51.060;3.638;2024-02-15T07:31:49;101493.88;;;11.17;100.00
78613;BME280;67933;51.060;3.638;2024-02-15T07:34:17;101493.81;;;11.18;100.00
78613;BME280;67933;51.060;3.638;2024-02-15T07:36:42;101489.28;;;11.21;100.00
78613;BME280;67933;51.060;3.638;2024-02-15T07:39:08;101488.44;;;11.20;100.00
78613;BME280;67933;51.060;3.638;2024-02-15T07:41:38;101483.81;;;11.24;100.00
78613;BME280;67933;51.060;3.638;2024-02-15T07:44:04;101482.25;;;11.19;100.00
78613;BME280;67933;51.060;3.638;2024-02-15T07:46:29;101493.81;;;11.18;100.00
78613;BME280;67933;51.060;3.638;2024-02-15T07:48:55;101488.50;;;11.18;100.00
78613;BME280;67933;51.060;3.638;2024-02-15T07:51:22;101490.38;;;11.16;100.00
78613;BME280;67933;51.060;3.638;2024-02-15T07:53:48;101481.31;;;11.21;100.00
78613;BME280;67933;51.060;3.638;2024-02-15T07:56:16;101488.38;;;11.22;100.00
78613;BME280;67933;51.060;3.638;2024-02-15T07:58:47;101483.91;;;11.22;100.00
78613;BME280;67933;51.060;3.638;2024-02-15T08:01:13;101480.41;;;11.22;100.00
78613;BME280;67933;51.060;3.638;2024-02-15T08:03:39;101482.13;;;11.23;100.00
78613;BME280;67933;51.060;3.638;2024-02-15T08:06:10;101480.22;;;11.25;100.00
78613;BME280;67933;51.060;3.638;2024-02-15T08:08:41;101491.72;;;11.25;100.00
78613;BME280;67933;51.060;3.638;2024-02-15T08:11:08;101491.63;;;11.27;100.00
78613;BME280;67933;51.060;3.638;2024-02-15T08:13:52;101489.91;;;11.26;100.00
78613;BME280;67933;51.060;3.638;2024-02-15T08:16:20;101499.59;;;11.27;100.00
78613;BME280;67933;51.060;3.638;2024-02-15T08:18:48;101492.50;;;11.27;100.00
78613;BME280;67933;51.060;3.638;2024-02-15T08:21:17;101487.25;;;11.26;100.00
78613;BME280;67933;51.060;3.638;2024-02-15T08:23:42;101491.88;;;11.22;100.00
78613;BME280;67933;51.060;3.638;2024-02-15T08:26:08;101477.50;;;11.26;100.00
78613;BME280;67933;51.060;3.638;2024-02-15T08:28:36;101483.66;;;11.27;100.00
78613;BME280;67933;51.060;3.638;2024-02-15T08:31:01;101480.78;;;11.31;100.00
78613;BME280;67933;51.060;3.638;2024-02-15T08:33:28;101476.03;;;11.38;100.00
78613;BME280;67933;51.060;3.638;2024-02-15T08:35:55;101472.59;;;11.36;100.00
78613;BME280;67933;51.060;3.638;2024-02-15T08:38:24;101475.84;;;11.41;100.00
78613;BME280;67933;51.060;3.638;2024-02-15T08:40:49;101471.94;;;11.48;100.00
78613;BME280;67933;51.060;3.638;2024-02-15T08:43:15;101467.16;;;11.54;100.00
78613;BME280;67933;51.060;3.638;2024-02-15T08:45:41;101460.69;;;11.60;100.00
78613;BME280;67933;51.060;3.638;2024-02-15T08:48:07;101462.09;;;11.67;100.00
78613;BME280;67933;51.060;3.638;2024-02-15T08:50:33;101462.72;;;11.72;100.00
78613;BME280;67933;51.060;3.638;2024-02-15T08:52:58;101468.66;;;11.77;100.00
78613;BME280;67933;51.060;3.638;2024-02-15T08:55:24;101461.16;;;11.85;100.00
78613;BME280;67933;51.060;3.638;2024-02-15T08:57:53;101460.50;;;11.98;100.00
78613;BME280;67933;51.060;3.638;2024-02-15T09:00:19;101461.03;;;12.04;100.00
78613;BME280;67933;51.060;3.638;2024-02-15T09:02:48;101451.94;;;12.08;100.00
78613;BME280;67933;51.060;3.638;2024-02-15T09:05:18;101453.34;;;12.15;100.00
78613;BME280;67933;51.060;3.638;2024-02-15T09:07:45;101444.94;;;12.23;100.00
78613;BME280;67933;51.060;3.638;2024-02-15T09:10:16;101442.53;;;12.34;100.00
78613;BME280;67933;51.060;3.638;2024-02-15T09:12:45;101446.75;;;12.54;100.00
78613;BME280;67933;51.060;3.638;2024-02-15T09:15:14;101442.03;;;12.75;100.00
78613;BME280;67933;51.060;3.638;2024-02-15T09:17:39;101443.72;;;12.91;100.00
78613;BME280;67933;51.060;3.638;2024-02-15T09:20:10;101439.25;;;12.92;100.00
78613;BME280;67933;51.060;3.638;2024-02-15T09:22:50;101436.75;;;12.89;100.00
78613;BME280;67933;51.060;3.638;2024-02-15T09:25:16;101442.50;;;12.97;100.00
78613;BME280;67933;51.060;3.638;2024-02-15T09:27:42;101438.44;;;13.21;100.00
78613;BME280;67933;51.060;3.638;2024-02-15T09:30:08;101436.44;;;13.25;100.00
78613;BME280;67933;51.060;3.638;2024-02-15T09:32:37;101434.38;;;13.30;100.00
78613;BME280;67933;51.060;3.638;2024-02-15T09:35:04;101424.66;;;13.29;100.00
78613;BME280;67933;51.060;3.638;2024-02-15T09:37:47;101429.22;;;13.27;100.00
78613;BME280;67933;51.060;3.638;2024-02-15T09:40:16;101421.44;;;13.38;100.00
78613;BME280;67933;51.060;3.638;2024-02-15T09:42:43;101422.47;;;13.35;100.00
78613;BME280;67933;51.060;3.638;2024-02-15T09:45:13;101423.81;;;13.42;100.00
78613;BME280;67933;51.060;3.638;2024-02-15T09:47:40;101423.25;;;13.37;100.00
78613;BME280;67933;51.060;3.638;2024-02-15T09:50:09;101420.19;;;13.29;100.00
78613;BME280;67933;51.060;3.638;2024-02-15T09:52:52;101424.56;;;13.30;100.00
78613;BME280;67933;51.060;3.638;2024-02-15T09:55:18;101423.50;;;13.33;100.00
78613;BME280;67933;51.060;3.638;2024-02-15T09:57:45;101419.03;;;13.33;100.00
78613;BME280;67933;51.060;3.638;2024-02-15T10:00:14;101416.78;;;13.41;100.00
78613;BME280;67933;51.060;3.638;2024-02-15T10:02:41;101408.41;;;13.47;100.00
78613;BME280;67933;51.060;3.638;2024-02-15T10:05:08;101411.47;;;13.56;100.00
78613;BME280;67933;51.060;3.638;2024-02-15T10:07:41;101403.75;;;13.65;100.00
78613;BME280;67933;51.060;3.638;2024-02-15T10:12:42;101405.25;;;14.54;100.00
78613;BME280;67933;51.060;3.638;2024-02-15T10:15:08;101403.50;;;15.07;100.00
78613;BME280;67933;51.060;3.638;2024-02-15T10:17:35;101399.09;;;15.58;100.00
78613;BME280;67933;51.060;3.638;2024-02-15T10:20:07;101391.69;;;16.36;100.00
78613;BME280;67933;51.060;3.638;2024-02-15T10:22:35;101373.03;;;16.95;100.00
78613;BME280;67933;51.060;3.638;2024-02-15T10:25:13;101375.13;;;17.03;100.00
78613;BME280;67933;51.060;3.638;2024-02-15T10:27:42;101370.91;;;17.68;100.00
78613;BME280;67933;51.060;3.638;2024-02-15T10:30:20;101368.91;;;17.02;100.00
78613;BME280;67933;51.060;3.638;2024-02-15T10:32:46;101366.56;;;17.33;100.00
78613;BME280;67933;51.060;3.638;2024-02-15T10:35:21;101373.19;;;18.06;100.00
78613;BME280;67933;51.060;3.638;2024-02-15T10:37:51;101365.31;;;18.59;100.00
78613;BME280;67933;51.060;3.638;2024-02-15T10:40:22;101387.13;;;18.77;100.00
78613;BME280;67933;51.060;3.638;2024-02-15T10:42:51;101365.38;;;18.80;100.00
78613;BME280;67933;51.060;3.638;2024-02-15T10:45:17;101365.38;;;19.01;100.00
78613;BME280;67933;51.060;3.638;2024-02-15T10:47:46;101357.56;;;19.50;100.00
78613;BME280;67933;51.060;3.638;2024-02-15T10:50:14;101351.50;;;19.98;100.00
78613;BME280;67933;51.060;3.638;2024-02-15T10:52:53;101353.91;;;19.61;100.00
78613;BME280;67933;51.060;3.638;2024-02-15T10:55:28;101361.97;;;18.99;100.00
78613;BME280;67933;51.060;3.638;2024-02-15T10:58:01;101355.50;;;18.69;100.00
78613;BME280;67933;51.060;3.638;2024-02-15T11:00:30;101359.06;;;18.91;100.00
78613;BME280;67933;51.060;3.638;2024-02-15T11:03:02;101358.41;;;18.98;100.00
78613;BME280;67933;51.060;3.638;2024-02-15T11:05:31;101347.41;;;18.80;100.00
78613;BME280;67933;51.060;3.638;2024-02-15T11:07:57;101341.91;;;19.03;100.00
78613;BME280;67933;51.060;3.638;2024-02-15T11:10:25;101356.84;;;17.98;100.00
78613;BME280;67933;51.060;3.638;2024-02-15T11:12:51;101338.22;;;17.06;100.00
78613;BME280;67933;51.060;3.638;2024-02-15T11:18:00;101331.16;;;16.58;100.00
78613;BME280;67933;51.060;3.638;2024-02-15T11:22:58;101319.19;;;16.27;100.00
78613;BME280;67933;51.060;3.638;2024-02-15T11:25:37;101314.69;;;16.27;100.00
78613;BME280;67933;51.060;3.638;2024-02-15T11:30:55;101306.53;;;16.05;100.00
78613;BME280;67933;51.060;3.638;2024-02-15T11:38:30;101302.44;;;16.83;100.00
78613;BME280;67933;51.060;3.638;2024-02-15T11:43:51;101291.31;;;17.23;100.00
78613;BME280;67933;51.060;3.638;2024-02-15T11:46:27;101277.16;;;18.10;100.00
78613;BME280;67933;51.060;3.638;2024-02-15T11:48:57;101284.31;;;18.21;100.00
78613;BME280;67933;51.060;3.638;2024-02-15T11:54:03;101273.53;;;17.22;100.00
78613;BME280;67933;51.060;3.638;2024-02-15T11:56:48;101267.22;;;16.77;100.00
78613;BME280;67933;51.060;3.638;2024-02-15T11:59:16;101265.88;;;16.47;100.00
78613;BME280;67933;51.060;3.638;2024-02-15T12:01:56;101268.50;;;16.36;100.00
78613;BME280;67933;51.060;3.638;2024-02-15T12:04:40;101268.56;;;16.24;100.00
78613;BME280;67933;51.060;3.638;2024-02-15T12:07:24;101262.69;;;16.18;100.00
78613;BME280;67933;51.060;3.638;2024-02-15T12:10:15;101258.09;;;16.21;100.00
78613;BME280;67933;51.060;3.638;2024-02-15T12:12:59;101252.44;;;16.12;100.00
78613;BME280;67933;51.060;3.638;2024-02-15T12:16:00;101250.97;;;16.32;100.00
78613;BME280;67933;51.060;3.638;2024-02-15T12:18:44;101252.81;;;16.43;100.00
78613;BME280;67933;51.060;3.638;2024-02-15T12:21:17;101254.16;;;16.37;100.00
78613;BME280;67933;51.060;3.638;2024-02-15T12:23:45;101240.00;;;16.35;100.00
78613;BME280;67933;51.060;3.638;2024-02-15T12:26:11;101233.84;;;16.46;100.00
78613;BME280;67933;51.060;3.638;2024-02-15T12:28:39;101225.25;;;16.53;100.00
78613;BME280;67933;51.060;3.638;2024-02-15T12:31:05;101224.00;;;16.58;100.00
78613;BME280;67933;51.060;3.638;2024-02-15T12:33:33;101222.34;;;16.57;100.00
78613;BME280;67933;51.060;3.638;2024-02-15T12:36:05;101221.78;;;16.64;100.00
78613;BME280;67933;51.060;3.638;2024-02-15T12:38:31;101210.47;;;16.72;100.00
78613;BME280;67933;51.060;3.638;2024-02-15T12:40:59;101210.00;;;16.89;100.00
78613;BME280;67933;51.060;3.638;2024-02-15T12:43:27;101200.25;;;16.88;100.00
78613;BME280;67933;51.060;3.638;2024-02-15T12:45:53;101203.66;;;16.90;100.00
78613;BME280;67933;51.060;3.638;2024-02-15T12:48:19;101197.44;;;16.89;100.00
78613;BME280;67933;51.060;3.638;2024-02-15T12:50:45;101190.72;;;16.73;100.00
78613;BME280;67933;51.060;3.638;2024-02-15T12:53:11;101183.91;;;16.69;100.00
78613;BME280;67933;51.060;3.638;2024-02-15T12:55:37;101191.69;;;16.61;100.00
78613;BME280;67933;51.060;3.638;2024-02-15T12:58:03;101178.09;;;16.51;100.00
78613;BME280;67933;51.060;3.638;2024-02-15T13:00:32;101171.41;;;16.45;100.00
78613;BME280;67933;51.060;3.638;2024-02-15T13:03:01;101167.34;;;16.64;100.00
78613;BME280;67933;51.060;3.638;2024-02-15T13:05:29;101173.22;;;16.91;100.00